This is the latest recevied weather packets stored in our database for station/object FW0727. If no packets are shown the sender has not sent any weather packets the latest 10 day(s).
| Time | Temp. | Humidity | Pressure | Rain* | Wind** | Luminosity | Snow |
|---|---|---|---|---|---|---|---|
| 1777706433 | 11.67° C | 35% | 1021.6 hPa | - | - | - | - |
| 1777706088 | 11.67° C | 35% | 1021.7 hPa | - | - | - | - |
| 1777705739 | 11.67° C | 35% | 1021.7 hPa | - | - | - | - |
| 1777705394 | 11.67° C | 36% | 1021.6 hPa | - | - | - | - |
| 1777704720 | 11.67° C | 38% | 1021.7 hPa | - | - | - | - |
| 1777703718 | 11.11° C | 42% | 1021.7 hPa | - | - | - | - |
| 1777702708 | 8.89° C | 47% | 1021.7 hPa | - | - | - | - |
| 1777702355 | 8.89° C | 46% | 1021.8 hPa | - | - | - | - |
| 1777702002 | 8.33° C | 46% | 1021.8 hPa | - | - | - | - |
| 1777701649 | 8.33° C | 48% | 1021.7 hPa | - | - | - | - |
| 1777700964 | 7.78° C | 49% | 1021.8 hPa | - | - | - | - |
| 1777700613 | 7.78° C | 49% | 1021.9 hPa | - | - | - | - |
| 1777700260 | 7.78° C | 50% | 1022 hPa | - | - | - | - |
| 1777699578 | 7.22° C | 51% | 1022 hPa | - | - | - | - |
| 1777699225 | 7.22° C | 52% | 1021.9 hPa | - | - | - | - |
| 1777698880 | 7.22° C | 54% | 1021.8 hPa | - | - | - | - |
| 1777698207 | 6.67° C | 53% | 1021.8 hPa | - | - | - | - |
| 1777697533 | 6.67° C | 53% | 1021.8 hPa | - | - | - | - |
| 1777697188 | 6.67° C | 53% | 1021.9 hPa | - | - | - | - |
| 1777696514 | 6.67° C | 53% | 1021.9 hPa | - | - | - | - |
| 1777696170 | 6.11° C | 53% | 1021.9 hPa | - | - | - | - |
| 1777695497 | 6.11° C | 54% | 1021.8 hPa | - | - | - | - |
| 1777695145 | 6.11° C | 54% | 1021.8 hPa | - | - | - | - |
| 1777694791 | 6.11° C | 54% | 1021.9 hPa | - | - | - | - |
| 1777693790 | 5.56° C | 55% | 1021.9 hPa | - | - | - | - |
* Rain since midnight (hover to see other rain measurements)
** Current wind speed in m/s (hover to see current wind gust speed)